Altmar, NY

9:10 AM EDT on April 27, 2015 (GMT -0400)
Lorton Lake Back End | | Change Station
CLOSE
Current Station
Personal Weather Station
Location: Altmar, NY
Elevation: 870 ft
Nearby Weather Stations

Elev 870 ft 43.50 °N, 75.89 °W | Updated 55 seconds ago

Overcast
Overcast
41.2 °F
Feels Like 41 °F
N
1.0
Wind Variable Wind from North

Today
High -- | Low -- °F
--% Chance of Precip.
Yesterday
High -- | Low -- °F
Precip. -- in
6:02 AM 8:01 PM
Waxing Gibbous, 65% visible
Pressure 29.77 in
Visibility 10.0 miles
Clouds Mostly Cloudy 1600 ft
Mostly Cloudy 6000 ft
Overcast 8500 ft
Windchill 41 °F
Dew Point 36 °F
Humidity 83%
Rainfall 0.00 in
Snow Depth Not available.
UV 1 out of 12
Pollen 8.30 out of 12
Air Quality Not available.
Flu Activity Widespread
SPECI KFZY 271238Z AUTO 33010KT 10SM BKN016 BKN060 OVC085 07/02 A2977 RMK AO2 T00670017

More Conditions Fewer Conditions

Pressure 29.77 in
Visibility 10.0 miles
Clouds Mostly Cloudy 1600 ft
Mostly Cloudy 6000 ft
Overcast 8500 ft
Windchill 41 °F
Dew Point 36 °F
Humidity 83%
Rainfall 0.00 in
Snow Depth Not available.
UV 1 out of 12
Pollen 8.30 out of 12
Air Quality Not available.
Flu Activity Widespread
SPECI KFZY 271238Z AUTO 33010KT 10SM BKN016 BKN060 OVC085 07/02 A2977 RMK AO2 T00670017

More Conditions Fewer Conditions

10-Day Weather Forecast

Almanac

Astronomy

Apr. 27, 2015 Rise Set
Actual Time
Civil Twilight
Nautical Twilight
Astronomical Twilight
Moon
Length of Visible Light
Length of Day
Tomorrow will be .
, % of the Moon is Illuminated

Today's Extremes

State Highs State Lows

Community

WunderPhotos

Upload Photos

1,817,305 photos uploaded!

WunderBlogs® & News

Nearby

Air Quality

  Air Quality AQ Index Pollutant
Not available.

Snow Depth

Station Depth Elevation

Earthquake Activity

City Distance Mag. Time & Date
Minimum magnitude displayed is 2.5.

Coastal Water Temperatures

Place Temperature

Stations

Nearby Weather Stations

Station Location Temp. Windchill Dew Point Humidity Wind Precip. Elev Updated Type